createdAt,value
2022-11-03T07:08:53.821Z,99936.69
2022-11-03T07:11:28.721Z,99932.16
2022-11-03T07:14:04.469Z,99922.00
2022-11-03T07:16:40.793Z,99930.50
2022-11-03T07:19:14.061Z,99920.97
2022-11-03T07:21:44.764Z,99909.50
2022-11-03T07:24:17.883Z,99913.09
2022-11-03T07:26:44.604Z,99907.91
2022-11-03T07:29:22.234Z,99909.53
2022-11-03T07:31:49.975Z,99905.38
2022-11-03T07:34:20.916Z,99900.63
2022-11-03T07:36:52.816Z,99887.22
2022-11-03T07:39:22.362Z,99886.78
2022-11-03T07:41:49.322Z,99883.00
2022-11-03T07:44:20.760Z,99888.78
2022-11-03T07:46:49.079Z,99888.50
2022-11-03T07:49:35.915Z,99879.97
2022-11-03T07:52:02.615Z,99878.41
2022-11-03T07:54:30.832Z,99866.97
2022-11-03T07:57:03.699Z,99862.19
2022-11-03T07:59:42.455Z,99844.59
2022-11-03T08:02:29.709Z,99849.44
2022-11-03T08:04:56.627Z,99837.06
2022-11-03T08:07:23.195Z,99838.00
2022-11-03T08:09:49.845Z,99827.03
2022-11-03T08:12:16.435Z,99834.06
2022-11-03T08:14:43.051Z,99836.56
2022-11-03T08:17:09.634Z,99844.81
2022-11-03T08:19:36.230Z,99834.03
2022-11-03T08:22:02.879Z,99835.53
2022-11-03T08:24:29.485Z,99829.03
2022-11-03T08:26:56.044Z,99825.78
2022-11-03T08:29:22.815Z,99816.16
2022-11-03T08:31:49.373Z,99813.00
2022-11-03T08:34:15.982Z,99802.53
2022-11-03T08:36:42.555Z,99797.50
2022-11-03T08:39:09.169Z,99792.94
2022-11-03T08:41:35.845Z,99793.38
2022-11-03T08:44:02.515Z,99787.28
2022-11-03T08:46:29.292Z,99790.41
2022-11-03T08:48:55.856Z,99781.94
2022-11-03T08:51:22.474Z,99777.59
2022-11-03T08:53:52.575Z,99784.03
2022-11-03T08:56:22.441Z,99777.00
2022-11-03T08:58:49.338Z,99779.34
2022-11-03T09:01:16.084Z,99772.53
2022-11-03T09:03:43.030Z,99773.78
2022-11-03T09:06:10.012Z,99760.22
2022-11-03T09:11:23.215Z,99752.69
2022-11-03T09:13:49.881Z,99740.81
2022-11-03T09:16:17.209Z,99737.00
2022-11-03T09:18:44.155Z,99732.72
2022-11-03T09:21:10.783Z,99733.19
2022-11-03T09:23:37.361Z,99730.91
2022-11-03T09:26:05.834Z,99726.97
2022-11-03T09:28:32.686Z,99721.56
2022-11-03T09:30:59.225Z,99712.41
2022-11-03T09:33:25.810Z,99709.06
2022-11-03T09:35:52.424Z,99707.25
2022-11-03T09:38:19.099Z,99703.22
2022-11-03T09:40:45.760Z,99707.88
2022-11-03T09:43:12.806Z,99707.56
2022-11-03T09:45:39.550Z,99705.38
2022-11-03T09:48:10.200Z,99692.06
2022-11-03T09:50:37.001Z,99695.81
2022-11-03T09:53:03.728Z,99692.66
2022-11-03T09:55:30.703Z,99679.91
2022-11-03T09:57:59.860Z,99670.78
2022-11-03T10:00:27.405Z,99673.34
2022-11-03T10:02:54.851Z,99665.44
2022-11-03T10:05:26.483Z,99659.75
2022-11-03T10:07:56.716Z,99652.19
2022-11-03T10:10:23.571Z,99648.50
2022-11-03T10:12:53.063Z,99646.66
2022-11-03T10:15:21.710Z,99638.88
2022-11-03T10:17:50.605Z,99635.97
2022-11-03T10:20:22.063Z,99630.63
2022-11-03T10:22:52.881Z,99627.91
2022-11-03T10:25:44.316Z,99630.66
2022-11-03T10:28:25.110Z,99622.81
2022-11-03T10:33:51.488Z,99607.09
2022-11-03T10:36:18.146Z,99608.25
2022-11-03T10:38:45.063Z,99598.81
2022-11-03T10:41:15.657Z,99594.75
2022-11-03T10:43:44.273Z,99582.56
2022-11-03T10:46:48.536Z,99581.22
2022-11-03T10:49:15.013Z,99585.06
2022-11-03T10:51:42.476Z,99587.25
2022-11-03T10:54:12.403Z,99570.19
2022-11-03T10:56:39.115Z,99565.91
2022-11-03T10:59:05.833Z,99564.31
2022-11-03T11:01:32.564Z,99558.94
2022-11-03T11:03:59.340Z,99552.41
2022-11-03T11:06:28.369Z,99551.09
2022-11-03T11:09:00.583Z,99546.81
2022-11-03T11:11:28.020Z,99549.31
2022-11-03T11:14:25.514Z,99539.31
2022-11-03T11:16:59.161Z,99540.66
2022-11-03T11:19:27.816Z,99524.69
2022-11-03T11:21:54.271Z,99512.50
2022-11-03T11:24:43.379Z,99513.88
2022-11-03T11:27:32.405Z,99516.03
2022-11-03T11:30:00.520Z,99508.97
2022-11-03T11:32:39.274Z,99492.44
2022-11-03T11:35:10.475Z,99483.47
2022-11-03T11:37:38.423Z,99476.72
2022-11-03T11:40:29.168Z,99470.75
2022-11-03T11:43:11.652Z,99459.63
2022-11-03T11:46:15.931Z,99452.56
2022-11-03T11:48:42.555Z,99451.75
2022-11-03T11:51:11.128Z,99444.72
2022-11-03T11:53:42.529Z,99431.41
2022-11-03T11:56:11.732Z,99424.34
2022-11-03T11:58:56.755Z,99422.44
2022-11-03T12:01:30.827Z,99430.84
2022-11-03T12:03:59.758Z,99421.34
2022-11-03T12:06:37.564Z,99412.69
2022-11-03T12:09:06.156Z,99412.41
2022-11-03T12:11:49.252Z,99395.38
2022-11-03T12:14:26.199Z,99399.97
2022-11-03T12:16:53.588Z,99394.56
2022-11-03T12:19:42.491Z,99390.44
2022-11-03T12:22:20.649Z,99379.38
2022-11-03T12:24:52.112Z,99379.41
2022-11-03T12:27:24.820Z,99382.34
2022-11-03T12:29:59.434Z,99373.16
2022-11-03T12:32:33.961Z,99370.72
2022-11-03T12:35:02.840Z,99370.44
2022-11-03T12:37:29.421Z,99360.94
2022-11-03T12:39:56.089Z,99357.34
2022-11-03T12:42:24.813Z,99348.94
2022-11-03T12:44:52.109Z,99350.00
2022-11-03T12:47:19.736Z,99340.50
2022-11-03T12:49:46.283Z,99343.75
2022-11-03T12:52:12.910Z,99335.91
2022-11-03T12:54:39.790Z,99339.69
2022-11-03T12:57:06.334Z,99330.41
2022-11-03T12:59:32.926Z,99331.25
2022-11-03T13:01:59.653Z,99320.69
2022-11-03T13:04:26.292Z,99318.22
2022-11-03T13:06:52.909Z,99295.16
2022-11-03T13:09:19.463Z,99294.91
2022-11-03T13:12:12.332Z,99302.00
2022-11-03T13:14:39.373Z,99304.50
2022-11-03T13:17:07.713Z,99294.44
2022-11-03T13:19:34.601Z,99297.97
2022-11-03T13:22:01.184Z,99286.63
2022-11-03T13:24:27.815Z,99292.59
2022-11-03T13:26:54.438Z,99292.59
2022-11-03T13:29:21.112Z,99296.59
2022-11-03T13:31:47.749Z,99290.44
2022-11-03T13:34:14.357Z,99287.72
2022-11-03T13:36:40.967Z,99293.13
2022-11-03T13:39:07.546Z,99275.53
2022-11-03T13:41:34.131Z,99269.56
2022-11-03T13:44:00.695Z,99276.34
2022-11-03T13:46:27.245Z,99265.78
2022-11-03T13:49:51.146Z,99263.03
2022-11-03T13:51:40.763Z,99271.78
2022-11-03T13:59:40.717Z,99255.06
2022-11-03T14:04:54.081Z,99258.38
2022-11-03T14:07:20.644Z,99261.88
2022-11-03T14:09:47.525Z,99247.53
2022-11-03T14:12:32.594Z,99249.16
2022-11-03T14:15:00.599Z,99238.06
2022-11-03T14:17:27.438Z,99247.53
2022-11-03T14:19:59.169Z,99231.84
2022-11-03T14:22:30.565Z,99233.78
2022-11-03T14:24:57.225Z,99234.03
2022-11-03T14:27:23.919Z,99237.31
2022-11-03T14:29:50.626Z,99241.06
2022-11-03T14:32:18.389Z,99233.22
2022-11-03T14:34:45.144Z,99227.78
2022-11-03T14:37:12.933Z,99242.66
2022-11-03T14:39:40.232Z,99235.38
2022-11-03T14:42:15.106Z,99235.34
2022-11-03T14:44:42.923Z,99235.03
2022-11-03T14:47:12.161Z,99240.97
2022-11-03T14:49:38.782Z,99227.69
2022-11-03T14:52:07.451Z,99223.06
2022-11-03T14:54:34.598Z,99222.56
2022-11-03T14:57:02.000Z,99208.72
2022-11-03T14:59:28.996Z,99214.97
2022-11-03T15:01:55.812Z,99212.25
2022-11-03T15:04:22.820Z,99210.56
2022-11-03T15:06:50.058Z,99212.72
2022-11-03T15:09:16.757Z,99212.66
2022-11-03T15:11:44.187Z,99219.19
2022-11-03T15:14:11.898Z,99216.41
2022-11-03T15:16:38.948Z,99209.88
2022-11-03T15:19:06.485Z,99216.09
2022-11-03T15:21:33.696Z,99212.78
2022-11-03T15:26:46.965Z,99216.19
2022-11-03T15:29:13.620Z,99202.28
2022-11-03T15:31:46.245Z,99204.63
2022-11-03T15:34:14.032Z,99202.41
2022-11-03T15:36:40.641Z,99197.78
2022-11-03T15:39:07.318Z,99186.72
2022-11-03T15:41:34.009Z,99179.69
2022-11-03T15:44:00.662Z,99173.06
2022-11-03T15:46:27.288Z,99158.44
2022-11-03T15:48:56.496Z,99144.44
2022-11-03T15:51:23.314Z,99144.38
2022-11-03T15:53:53.598Z,99135.50
2022-11-03T15:56:24.835Z,99120.25
2022-11-03T15:58:51.460Z,99115.44
2022-11-03T16:01:18.220Z,99106.25
2022-11-03T16:03:44.953Z,99104.75
2022-11-03T16:06:11.748Z,99116.59
2022-11-03T16:08:38.376Z,99108.72
2022-11-03T16:11:05.202Z,99123.84
2022-11-03T16:13:31.862Z,99125.41
2022-11-03T16:15:58.617Z,99123.38
2022-11-03T16:18:25.382Z,99116.25
2022-11-03T16:20:52.112Z,99108.09
2022-11-03T16:23:18.736Z,99110.31
2022-11-03T16:25:45.399Z,99106.69
2022-11-03T16:28:12.134Z,99106.41
2022-11-03T16:30:38.968Z,99103.13
2022-11-03T16:33:05.953Z,99093.69
2022-11-03T16:35:32.581Z,99094.91
2022-11-03T16:37:59.191Z,99090.09
2022-11-03T16:40:25.832Z,99088.78
2022-11-03T16:42:52.506Z,99088.72
2022-11-03T16:45:25.886Z,99087.97
2022-11-03T16:47:52.544Z,99073.28
2022-11-03T16:50:19.379Z,99079.78
2022-11-03T16:52:47.243Z,99077.28
2022-11-03T16:55:15.003Z,99078.03
2022-11-03T16:57:42.001Z,99064.91
2022-11-03T17:00:15.154Z,99062.13
2022-11-03T17:02:42.085Z,99058.19
2022-11-03T17:05:09.553Z,99060.63
2022-11-03T17:07:36.209Z,99051.63
2022-11-03T17:10:04.277Z,99047.63
2022-11-03T17:12:30.807Z,99048.41
2022-11-03T17:14:57.804Z,99047.28
2022-11-03T17:17:24.756Z,99053.84
2022-11-03T17:19:51.818Z,99044.69
2022-11-03T17:22:18.424Z,99052.06
2022-11-03T17:24:44.975Z,99050.66
2022-11-03T17:27:24.059Z,99043.63
2022-11-03T17:29:54.613Z,99026.28
2022-11-03T17:32:26.394Z,99024.53
2022-11-03T17:34:53.337Z,99014.53
2022-11-03T17:37:20.508Z,99019.94
2022-11-03T17:39:47.052Z,99022.63
2022-11-03T17:42:16.426Z,99025.38
2022-11-03T17:44:44.671Z,99019.94
2022-11-03T17:47:11.296Z,99022.03
2022-11-03T17:49:37.907Z,99018.53
2022-11-03T17:52:04.922Z,99016.66
2022-11-03T17:54:31.888Z,99013.44
2022-11-03T17:56:59.998Z,99015.06
2022-11-03T17:59:26.723Z,99013.81
2022-11-03T18:01:53.516Z,99014.53
2022-11-03T18:04:20.465Z,98999.91
2022-11-03T18:06:47.207Z,99004.81
2022-11-03T18:09:13.825Z,98998.06
2022-11-03T18:12:00.260Z,98992.63
2022-11-03T18:14:28.221Z,98987.50
2022-11-03T18:16:54.908Z,98987.50
2022-11-03T18:19:21.909Z,98990.25
2022-11-03T18:21:48.516Z,98969.34
2022-11-03T18:24:17.460Z,98972.97
2022-11-03T18:26:44.160Z,98972.16
2022-11-03T18:29:10.788Z,98954.16
2022-11-03T18:31:41.202Z,98959.97
2022-11-03T18:34:27.076Z,98943.38
2022-11-03T18:36:54.428Z,98944.44
2022-11-03T18:39:28.069Z,98934.44
2022-11-03T18:41:54.993Z,98934.69
2022-11-03T18:44:24.516Z,98920.16
2022-11-03T18:46:52.305Z,98917.38
2022-11-03T18:49:19.662Z,98928.38
2022-11-03T18:51:51.655Z,98922.22
2022-11-03T18:54:20.724Z,98917.25
2022-11-03T18:56:47.800Z,98922.56
2022-11-03T18:59:21.535Z,98927.56
2022-11-03T19:01:48.388Z,98929.13
2022-11-03T19:04:15.280Z,98935.84
2022-11-03T19:06:46.579Z,98928.19
2022-11-03T19:09:19.762Z,98926.44
2022-11-03T19:11:47.733Z,98922.59
2022-11-03T19:14:36.304Z,98916.34
2022-11-03T19:17:24.212Z,98918.84
2022-11-03T19:19:52.066Z,98915.69
2022-11-03T19:22:21.801Z,98907.47
2022-11-03T19:24:49.062Z,98916.50
2022-11-03T19:27:18.739Z,98898.34
2022-11-03T19:29:46.118Z,98894.81
2022-11-03T19:32:33.835Z,98899.50
2022-11-03T19:35:03.507Z,98893.53
2022-11-03T19:40:06.892Z,98884.53
2022-11-03T19:40:19.404Z,98891.47
2022-11-03T19:42:48.496Z,98883.97
2022-11-03T19:45:17.225Z,98880.66
2022-11-03T19:48:10.481Z,98866.16
2022-11-03T19:50:35.215Z,98862.72
2022-11-03T19:53:03.684Z,98866.69
2022-11-03T19:55:36.433Z,98865.50
2022-11-03T19:58:15.318Z,98860.81
2022-11-03T20:00:42.951Z,98859.66
2022-11-03T20:03:09.816Z,98858.91
2022-11-03T20:05:36.549Z,98848.97
2022-11-03T20:08:06.282Z,98847.28
2022-11-03T20:10:36.006Z,98847.28
2022-11-03T20:13:04.106Z,98840.53
2022-11-03T20:15:30.739Z,98831.28
2022-11-03T20:17:57.281Z,98828.19
2022-11-03T20:20:26.642Z,98815.81
2022-11-03T20:22:57.459Z,98829.47
2022-11-03T20:25:29.005Z,98810.06
2022-11-03T20:27:56.991Z,98796.56
2022-11-03T20:30:25.545Z,98783.63
2022-11-03T20:32:52.723Z,98781.94
2022-11-03T20:35:25.416Z,98774.19
2022-11-03T20:37:56.685Z,98772.41
2022-11-03T20:40:25.924Z,98768.78
2022-11-03T20:42:56.164Z,98754.09
2022-11-03T20:45:23.609Z,98750.88
2022-11-03T20:47:50.274Z,98749.59
2022-11-03T20:50:18.341Z,98754.97
2022-11-03T20:52:46.836Z,98752.34
2022-11-03T20:55:17.785Z,98762.22
2022-11-03T20:57:44.987Z,98762.16
2022-11-03T21:00:23.936Z,98758.81
2022-11-03T21:02:51.676Z,98769.94
2022-11-03T21:05:27.032Z,98767.09
2022-11-03T21:07:54.956Z,98755.53
2022-11-03T21:10:23.323Z,98755.91
2022-11-03T21:12:50.198Z,98746.34
2022-11-03T21:15:44.648Z,98750.13
2022-11-03T21:18:43.352Z,98752.06
2022-11-03T21:21:11.268Z,98737.09
2022-11-03T21:23:38.443Z,98739.41
2022-11-03T21:26:05.218Z,98749.50
2022-11-03T21:28:31.777Z,98742.94
2022-11-03T21:30:58.806Z,98735.88
2022-11-03T21:33:25.430Z,98737.91
2022-11-03T21:35:52.238Z,98728.19
2022-11-03T21:38:19.160Z,98727.59
2022-11-03T21:40:52.363Z,98713.13
2022-11-03T21:43:40.417Z,98710.38
2022-11-03T21:46:11.394Z,98706.34
2022-11-03T21:48:57.615Z,98707.94
2022-11-03T21:51:24.648Z,98707.78
2022-11-03T21:53:51.253Z,98712.75
2022-11-03T21:56:17.818Z,98699.56
2022-11-03T21:58:44.868Z,98689.75
2022-11-03T22:01:11.516Z,98687.41
2022-11-03T22:03:39.256Z,98683.69
